Time;durP1;ratioP1;P1;durP2;ratioP2;P2;SDS_P1;SDS_P2;PMS_P1;PMS_P2;Temp;Humidity;BMP_temperature;BMP_pressure;BME280_temperature;BME280_humidity;BME280_pressure;Samples;Min_cycle;Max_cycle;Signal;HPM_P1;HPM_P2
2023/10/22 00:00:09;;;;;;;0.90;0.30;;;;;;;8.37;100.00;100713.81;109320;1253;65792;-55
2023/10/22 00:02:40;;;;;;;1.10;0.40;;;;;;;8.36;100.00;100709.03;109302;1254;71436;-57
2023/10/22 00:05:08;;;;;;;1.00;0.50;;;;;;;8.35;100.00;100716.77;109320;1254;60777;-55
2023/10/22 00:07:36;;;;;;;2.20;0.40;;;;;;;8.32;100.00;100721.52;109212;1253;60073;-55
2023/10/22 00:10:04;;;;;;;2.70;0.60;;;;;;;8.29;100.00;100718.01;109270;1254;73780;-55
2023/10/22 00:12:32;;;;;;;2.20;0.60;;;;;;;8.28;100.00;100716.23;109209;1252;67408;-57
2023/10/22 00:14:59;;;;;;;1.90;0.60;;;;;;;8.27;100.00;100717.02;109489;1253;72734;-55
2023/10/22 00:17:27;;;;;;;2.20;1.10;;;;;;;8.26;100.00;100718.48;109421;1253;60918;-55
2023/10/22 00:19:55;;;;;;;1.80;1.00;;;;;;;8.24;100.00;100721.61;109554;1252;60067;-55
2023/10/22 00:22:23;;;;;;;3.20;0.80;;;;;;;8.24;100.00;100730.64;109408;1251;73849;-55
2023/10/22 00:24:50;;;;;;;1.90;0.90;;;;;;;8.23;100.00;100734.54;109358;1252;200404;-55
2023/10/22 00:27:18;;;;;;;2.80;1.00;;;;;;;8.24;100.00;100739.17;109484;1253;71382;-55
2023/10/22 00:29:45;;;;;;;3.40;0.70;;;;;;;8.23;100.00;100738.20;109520;1251;60364;-54
2023/10/22 00:32:13;;;;;;;1.80;0.80;;;;;;;8.21;100.00;100736.86;109495;1251;59156;-57
2023/10/22 00:34:42;;;;;;;1.50;0.70;;;;;;;8.20;100.00;100735.72;109358;1251;74791;-55
2023/10/22 00:37:10;;;;;;;1.60;0.60;;;;;;;8.20;100.00;100742.84;109512;1251;65611;-55
2023/10/22 00:39:38;;;;;;;1.30;0.60;;;;;;;8.21;100.00;100741.88;109505;1251;72710;-55
2023/10/22 00:42:05;;;;;;;1.50;0.60;;;;;;;8.21;100.00;100742.70;109492;1252;59749;-57
2023/10/22 00:44:34;;;;;;;1.50;0.80;;;;;;;8.20;100.00;100741.27;109486;1250;58994;-55
2023/10/22 00:47:03;;;;;;;1.30;0.60;;;;;;;8.20;100.00;100735.04;109520;1251;72738;-55
2023/10/22 00:49:30;;;;;;;1.60;0.60;;;;;;;8.20;100.00;100737.83;109424;1251;66821;-54
2023/10/22 00:51:58;;;;;;;1.70;0.80;;;;;;;8.20;100.00;100739.11;109486;1250;72603;-55
2023/10/22 00:54:26;;;;;;;1.40;0.60;;;;;;;8.19;100.00;100742.05;109332;1251;60385;-56
2023/10/22 00:56:53;;;;;;;1.40;0.50;;;;;;;8.17;100.00;100739.16;109371;1251;59262;-55
2023/10/22 00:59:21;;;;;;;1.10;0.40;;;;;;;8.10;100.00;100738.85;109269;1251;75177;-55
2023/10/22 01:01:48;;;;;;;1.20;0.50;;;;;;;8.10;100.00;100731.27;109236;1251;66226;-55
2023/10/22 01:04:16;;;;;;;1.30;0.40;;;;;;;8.10;100.00;100734.76;109467;1253;72744;-55
2023/10/22 01:06:44;;;;;;;2.80;0.50;;;;;;;8.10;100.00;100739.40;109371;1254;61710;-55
2023/10/22 01:09:13;;;;;;;1.40;0.50;;;;;;;8.09;100.00;100742.97;109431;1251;58922;-55
2023/10/22 01:12:09;;;;;;;1.10;0.50;;;;;;;8.08;100.00;100741.12;109564;1251;74727;-55
2023/10/22 01:14:36;;;;;;;1.20;0.50;;;;;;;8.06;100.00;100733.50;109407;1251;66880;-55
2023/10/22 01:17:04;;;;;;;1.10;0.40;;;;;;;8.06;100.00;100734.23;109493;1251;71436;-54
2023/10/22 01:19:32;;;;;;;3.00;0.50;;;;;;;8.06;100.00;100742.34;109451;1251;60391;-55
2023/10/22 01:21:59;;;;;;;1.90;0.60;;;;;;;8.05;100.00;100748.63;109311;1254;59449;-54
2023/10/22 01:24:32;;;;;;;3.00;0.50;;;;;;;8.06;100.00;100750.16;109402;1252;74771;-56
2023/10/22 01:26:59;;;;;;;2.20;0.50;;;;;;;8.06;100.00;100746.33;109342;1252;66864;-56
2023/10/22 01:29:27;;;;;;;1.70;0.50;;;;;;;8.07;100.00;100751.25;109249;1254;71950;-57
2023/10/22 01:31:54;;;;;;;1.50;0.40;;;;;;;8.08;100.00;100752.73;109191;1254;62505;-57
2023/10/22 01:34:22;;;;;;;2.60;0.70;;;;;;;8.09;100.00;100756.83;109198;1251;60112;-54
2023/10/22 01:36:49;;;;;;;3.60;0.50;;;;;;;8.08;100.00;100763.16;109367;1252;74703;-54
2023/10/22 01:39:18;;;;;;;1.10;0.60;;;;;;;8.07;100.00;100770.15;109343;1253;66953;-54
2023/10/22 01:41:45;;;;;;;2.00;0.50;;;;;;;8.06;100.00;100770.21;109367;1251;73214;-56
2023/10/22 01:44:13;;;;;;;1.40;0.40;;;;;;;8.05;100.00;100767.55;109467;1251;58949;-54
2023/10/22 01:46:41;;;;;;;0.80;0.30;;;;;;;8.05;100.00;100764.27;109511;1251;58915;-54
2023/10/22 01:49:09;;;;;;;1.10;0.40;;;;;;;8.05;100.00;100773.42;109476;1250;75228;-54
2023/10/22 01:51:37;;;;;;;1.00;0.30;;;;;;;8.04;100.00;100772.84;109426;1251;65799;-54
2023/10/22 01:54:06;;;;;;;1.20;0.50;;;;;;;8.04;100.00;100774.92;109336;1254;72755;-54
2023/10/22 01:56:34;;;;;;;1.80;0.60;;;;;;;8.05;100.00;100776.73;109458;1253;60776;-54
2023/10/22 01:59:01;;;;;;;2.10;0.40;;;;;;;8.05;100.00;100773.63;109473;1251;58953;-54
2023/10/22 02:01:29;;;;;;;2.20;0.70;;;;;;;8.05;100.00;100777.73;109466;1250;74737;-54
2023/10/22 02:03:57;;;;;;;3.40;0.50;;;;;;;8.05;100.00;100774.98;109479;1250;66170;-55
2023/10/22 02:06:24;;;;;;;1.20;0.50;;;;;;;8.04;100.00;100771.80;109450;1251;72379;-53
2023/10/22 02:08:52;;;;;;;1.90;0.50;;;;;;;8.03;100.00;100768.25;109454;1251;59425;-54
2023/10/22 02:11:20;;;;;;;1.50;0.60;;;;;;;8.02;100.00;100775.16;109476;1250;58929;-54
2023/10/22 02:13:47;;;;;;;2.30;0.60;;;;;;;8.00;100.00;100772.20;109516;1251;73392;-53
2023/10/22 02:16:15;;;;;;;1.50;0.60;;;;;;;7.99;100.00;100771.25;109452;1251;67532;-56
2023/10/22 02:18:44;;;;;;;1.50;0.60;;;;;;;7.98;100.00;100772.44;109458;1251;72132;-53
2023/10/22 02:21:12;;;;;;;1.10;0.50;;;;;;;7.97;100.00;100775.98;109485;1251;59040;-53
2023/10/22 02:23:40;;;;;;;1.70;0.50;;;;;;;7.97;100.00;100782.92;109503;1251;59398;-53
2023/10/22 02:26:08;;;;;;;1.60;0.80;;;;;;;7.95;100.00;100783.39;109420;1251;73487;-54
2023/10/22 02:28:36;;;;;;;1.80;0.70;;;;;;;7.95;100.00;100779.82;109528;1251;66878;-56
2023/10/22 02:31:04;;;;;;;1.70;0.70;;;;;;;7.93;100.00;100798.54;109441;1251;71434;-56
2023/10/22 02:33:33;;;;;;;4.30;0.80;;;;;;;7.91;100.00;100794.10;109448;1251;61712;-56
2023/10/22 02:36:01;;;;;;;2.00;0.80;;;;;;;7.88;100.00;100797.45;109426;1251;60123;-57
2023/10/22 02:38:28;;;;;;;2.00;0.50;;;;;;;7.89;100.00;100795.59;109513;1251;74624;-55
2023/10/22 02:40:56;;;;;;;1.20;0.50;;;;;;;7.90;100.00;100797.60;109278;1252;65853;-56
2023/10/22 02:43:23;;;;;;;2.00;0.70;;;;;;;7.90;100.00;100793.84;109319;1253;71426;-56
2023/10/22 02:45:54;;;;;;;3.40;0.50;;;;;;;7.92;100.00;100792.63;109376;1252;61716;-57
2023/10/22 02:48:25;;;;;;;1.60;0.70;;;;;;;7.88;100.00;100787.92;109284;1254;59045;-56
2023/10/22 02:50:53;;;;;;;2.30;0.80;;;;;;;7.85;100.00;100789.33;109342;1252;73862;-56
2023/10/22 02:53:20;;;;;;;2.00;0.70;;;;;;;7.83;100.00;100783.31;109375;1252;67267;-56
2023/10/22 02:55:57;;;;;;;2.10;0.90;;;;;;;7.82;100.00;100777.12;109302;1253;72776;-57
2023/10/22 02:58:25;;;;;;;2.20;0.70;;;;;;;7.82;100.00;100776.50;109031;1253;60513;-56
2023/10/22 03:00:55;;;;;;;2.40;0.50;;;;;;;7.81;100.00;100777.27;109361;1250;59409;-56
2023/10/22 03:03:23;;;;;;;1.90;0.70;;;;;;;7.79;100.00;100773.55;109477;1250;73461;-56
2023/10/22 03:05:52;;;;;;;2.30;0.70;;;;;;;7.79;100.00;100776.34;109450;1251;67825;-56
2023/10/22 03:08:20;;;;;;;1.20;0.40;;;;;;;7.79;100.00;100776.73;109493;1251;71716;-55
2023/10/22 03:10:47;;;;;;;1.70;0.60;;;;;;;7.76;100.00;100777.84;109454;1251;61771;-56
2023/10/22 03:13:15;;;;;;;2.10;0.70;;;;;;;7.76;100.00;100772.46;109478;1251;59001;-57
2023/10/22 03:15:42;;;;;;;2.00;0.60;;;;;;;7.77;100.00;100780.23;109395;1251;73417;-56
2023/10/22 03:18:10;;;;;;;1.40;0.50;;;;;;;7.77;100.00;100779.90;109507;1251;67002;-56
2023/10/22 03:20:38;;;;;;;1.90;0.80;;;;;;;7.77;100.00;100778.86;109451;1253;73140;-56
2023/10/22 03:23:06;;;;;;;2.60;0.50;;;;;;;7.77;100.00;100784.34;109466;1251;61656;-56
2023/10/22 03:25:34;;;;;;;3.20;0.50;;;;;;;7.78;100.00;100783.61;109479;1251;60032;-56
2023/10/22 03:28:01;;;;;;;3.80;0.90;;;;;;;7.77;100.00;100793.15;109504;1251;74715;-55
2023/10/22 03:30:29;;;;;;;2.40;0.60;;;;;;;7.76;100.00;100791.35;109528;1251;65250;-55
2023/10/22 03:32:58;;;;;;;2.20;0.60;;;;;;;7.76;100.00;100790.83;109521;1251;72805;-56
2023/10/22 03:35:25;;;;;;;3.10;0.70;;;;;;;7.76;100.00;100784.44;109458;1251;60135;-57
2023/10/22 03:37:53;;;;;;;1.80;0.60;;;;;;;7.77;100.00;100784.77;109457;1251;60476;-56
2023/10/22 03:40:21;;;;;;;5.70;0.90;;;;;;;7.75;100.00;100788.39;109338;1252;74727;-56
2023/10/22 03:42:48;;;;;;;1.90;0.80;;;;;;;7.75;100.00;100791.82;109286;1253;67109;-56
2023/10/22 03:45:16;;;;;;;2.10;0.90;;;;;;;7.74;100.00;100792.92;109261;1253;71841;-56
2023/10/22 03:47:43;;;;;;;2.70;0.80;;;;;;;7.73;100.00;100790.14;109146;1253;61770;-57
2023/10/22 03:50:11;;;;;;;3.90;0.80;;;;;;;7.73;100.00;100791.37;109294;1255;60004;-55
2023/10/22 03:52:39;;;;;;;2.80;0.80;;;;;;;7.72;100.00;100791.92;109238;1253;74669;-56
2023/10/22 03:55:10;;;;;;;4.00;1.40;;;;;;;7.72;100.00;100795.95;109365;1252;67380;-56
2023/10/22 03:57:38;;;;;;;3.10;0.90;;;;;;;7.72;100.00;100792.80;109350;1253;71000;-57
2023/10/22 04:00:07;;;;;;;2.60;0.60;;;;;;;7.73;100.00;100793.45;109331;1252;59329;-56
2023/10/22 04:02:38;;;;;;;4.00;0.80;;;;;;;7.72;100.00;100791.41;109282;1252;59121;-56
2023/10/22 04:05:07;;;;;;;5.40;0.90;;;;;;;7.71;100.00;100784.20;109386;1252;74626;-56
2023/10/22 04:07:35;;;;;;;2.50;0.70;;;;;;;7.72;100.00;100789.14;109353;1252;64662;-55
2023/10/22 04:10:09;;;;;;;3.80;1.20;;;;;;;7.73;100.00;100795.30;109389;1252;73453;-56
2023/10/22 04:12:37;;;;;;;2.50;1.30;;;;;;;7.73;100.00;100796.55;109329;1252;60145;-56
2023/10/22 04:15:05;;;;;;;2.20;1.00;;;;;;;7.71;100.00;100797.38;109401;1252;59983;-56
2023/10/22 04:17:33;;;;;;;4.30;1.10;;;;;;;7.71;100.00;100799.45;109457;1252;74728;-57
2023/10/22 04:20:01;;;;;;;2.70;0.90;;;;;;;7.72;100.00;100802.02;109352;1252;65766;-55
2023/10/22 04:22:28;;;;;;;2.90;1.30;;;;;;;7.71;100.00;100795.56;109278;1253;72726;-55
2023/10/22 04:24:56;;;;;;;2.70;0.90;;;;;;;7.71;100.00;100801.42;109317;1252;60338;-55
2023/10/22 04:27:24;;;;;;;3.50;1.00;;;;;;;7.71;100.00;100801.60;109323;1253;60122;-56
2023/10/22 04:29:52;;;;;;;3.30;1.00;;;;;;;7.72;100.00;100803.03;109242;1252;73366;-56
2023/10/22 04:32:20;;;;;;;3.30;1.10;;;;;;;7.74;100.00;100804.24;109406;1252;66992;-55
2023/10/22 04:34:48;;;;;;;2.60;0.80;;;;;;;7.73;100.00;100802.29;109323;1252;72692;-56
2023/10/22 04:37:17;;;;;;;3.40;1.10;;;;;;;7.73;100.00;100806.94;109289;1253;58985;-55
2023/10/22 04:39:44;;;;;;;2.90;0.90;;;;;;;7.73;100.00;100810.34;109230;1252;60132;-57
2023/10/22 04:42:12;;;;;;;3.00;1.00;;;;;;;7.74;100.00;100811.80;109392;1252;74774;-56
2023/10/22 04:44:42;;;;;;;5.40;1.00;;;;;;;7.76;100.00;100812.52;109446;1252;65679;-55
2023/10/22 04:47:09;;;;;;;3.50;1.20;;;;;;;7.77;100.00;100811.31;109297;1253;72752;-56
2023/10/22 04:49:37;;;;;;;2.50;0.80;;;;;;;7.85;100.00;100816.59;109320;1252;59135;-55
2023/10/22 04:52:09;;;;;;;2.50;0.90;;;;;;;7.88;100.00;100816.98;109295;1252;59105;-56
2023/10/22 04:54:37;;;;;;;2.60;0.90;;;;;;;7.89;100.00;100818.44;109413;1252;73395;-55
2023/10/22 04:57:05;;;;;;;6.70;1.20;;;;;;;7.91;100.00;100817.21;109374;1252;65781;-55
2023/10/22 04:59:32;;;;;;;3.10;1.30;;;;;;;7.94;100.00;100816.64;109391;1252;72711;-56
2023/10/22 05:02:00;;;;;;;4.00;1.00;;;;;;;7.95;100.00;100819.55;109360;1252;60776;-56
2023/10/22 05:04:28;;;;;;;2.00;0.80;;;;;;;7.98;100.00;100819.17;109379;1252;59210;-55
2023/10/22 05:06:57;;;;;;;4.20;1.00;;;;;;;8.00;100.00;100813.06;109392;1252;74773;-56
2023/10/22 05:09:24;;;;;;;4.30;1.10;;;;;;;8.02;100.00;100814.08;109419;1252;67110;-55
2023/10/22 05:11:52;;;;;;;2.50;0.80;;;;;;;8.06;100.00;100821.23;109324;1253;72701;-56
2023/10/22 05:14:20;;;;;;;3.20;0.90;;;;;;;8.10;100.00;100818.54;109445;1252;60467;-55
2023/10/22 05:16:47;;;;;;;4.00;0.90;;;;;;;8.13;100.00;100821.52;109415;1252;59030;-56
2023/10/22 05:19:15;;;;;;;3.90;1.80;;;;;;;8.15;100.00;100827.05;109316;1252;74700;-58
2023/10/22 05:21:43;;;;;;;6.00;1.20;;;;;;;8.16;100.00;100829.52;109337;1252;67019;-56
2023/10/22 05:24:10;;;;;;;4.40;1.50;;;;;;;8.17;100.00;100832.11;109378;1253;72794;-56
2023/10/22 05:26:39;;;;;;;5.50;1.80;;;;;;;8.19;100.00;100824.50;109319;1252;61776;-56
2023/10/22 05:29:07;;;;;;;8.10;3.70;;;;;;;8.22;100.00;100825.04;109382;1252;60178;-56
2023/10/22 05:31:35;;;;;;;4.60;1.60;;;;;;;8.27;100.00;100829.70;109401;1252;73463;-55
2023/10/22 05:34:02;;;;;;;5.10;1.40;;;;;;;8.31;100.00;100828.49;109370;1253;67523;-55
2023/10/22 05:36:31;;;;;;;6.30;1.60;;;;;;;8.35;100.00;100834.98;109366;1252;72725;-55
2023/10/22 05:38:58;;;;;;;5.00;1.20;;;;;;;8.38;100.00;100835.77;109268;1251;60487;-55
2023/10/22 05:41:27;;;;;;;4.60;1.10;;;;;;;8.41;100.00;100833.36;109357;1252;60180;-57
2023/10/22 05:43:56;;;;;;;3.50;1.20;;;;;;;8.43;100.00;100828.52;109368;1253;74682;-55
2023/10/22 05:46:25;;;;;;;4.80;1.20;;;;;;;8.43;100.00;100826.58;109396;1252;65626;-56
2023/10/22 05:48:53;;;;;;;7.30;2.20;;;;;;;8.43;100.00;100835.15;109336;1252;71910;-57
2023/10/22 05:51:20;;;;;;;5.70;1.70;;;;;;;8.42;100.00;100830.38;109368;1252;60924;-58
2023/10/22 05:53:48;;;;;;;5.50;2.20;;;;;;;8.41;100.00;100829.04;109348;1252;60627;-56
2023/10/22 05:56:16;;;;;;;5.90;1.70;;;;;;;8.41;100.00;100835.13;109358;1252;73778;-55
2023/10/22 05:58:43;;;;;;;4.20;1.30;;;;;;;8.42;100.00;100836.41;109321;1252;66301;-55
2023/10/22 06:01:12;;;;;;;4.90;1.60;;;;;;;8.42;100.00;100831.10;109237;1253;71410;-58
2023/10/22 06:03:40;;;;;;;3.70;1.20;;;;;;;8.43;100.00;100835.21;109190;1253;60815;-55
2023/10/22 06:06:11;;;;;;;7.50;1.80;;;;;;;8.46;100.00;100838.48;109269;1253;59171;-55
2023/10/22 06:08:38;;;;;;;8.50;2.00;;;;;;;8.45;100.00;100845.27;109305;1252;74808;-56
2023/10/22 06:11:06;;;;;;;5.80;1.30;;;;;;;8.45;100.00;100844.59;109239;1253;66935;-55
2023/10/22 06:13:34;;;;;;;4.80;1.30;;;;;;;8.49;100.00;100846.39;109188;1255;72785;-56
2023/10/22 06:16:02;;;;;;;7.30;1.80;;;;;;;8.56;100.00;100847.17;109225;1253;58917;-55
2023/10/22 06:18:29;;;;;;;4.40;1.50;;;;;;;8.58;100.00;100845.59;109185;1253;60025;-55
2023/10/22 06:20:57;;;;;;;4.70;1.60;;;;;;;8.59;100.00;100841.65;109256;1253;74652;-56
2023/10/22 06:23:25;;;;;;;4.40;1.80;;;;;;;8.61;100.00;100844.06;109251;1253;67060;-56
2023/10/22 06:25:52;;;;;;;4.10;1.30;;;;;;;8.64;100.00;100854.12;109236;1253;71461;-55
2023/10/22 06:28:20;;;;;;;4.60;1.30;;;;;;;8.69;100.00;100854.63;109326;1253;60218;-55
2023/10/22 06:30:48;;;;;;;3.60;1.40;;;;;;;8.71;100.00;100853.76;109312;1252;59629;-55
2023/10/22 06:33:15;;;;;;;4.30;1.80;;;;;;;8.70;100.00;100852.16;109363;1252;73459;-55
2023/10/22 06:35:43;;;;;;;7.50;1.80;;;;;;;8.70;100.00;100853.30;109393;1252;66121;-55
2023/10/22 06:38:11;;;;;;;6.00;1.70;;;;;;;8.69;100.00;100854.23;109323;1253;71386;-55
2023/10/22 06:40:38;;;;;;;4.20;1.60;;;;;;;8.67;100.00;100855.85;109365;1252;60322;-55
2023/10/22 06:43:06;;;;;;;4.70;1.70;;;;;;;8.66;100.00;100852.83;109380;1252;60130;-55
2023/10/22 06:45:35;;;;;;;6.30;2.50;;;;;;;8.69;100.00;100860.52;109320;1252;74751;-56
2023/10/22 06:48:03;;;;;;;8.60;3.00;;;;;;;8.72;100.00;100860.37;109374;1252;66926;-55
2023/10/22 06:50:31;;;;;;;7.40;2.50;;;;;;;8.75;100.00;100857.81;109408;1252;72668;-56
2023/10/22 06:52:58;;;;;;;8.20;2.80;;;;;;;8.81;100.00;100859.17;109330;1252;60558;-55
2023/10/22 06:55:26;;;;;;;8.60;2.20;;;;;;;8.86;100.00;100850.60;109302;1252;60063;-55
2023/10/22 06:57:53;;;;;;;8.30;2.70;;;;;;;8.90;100.00;100853.73;109386;1252;72909;-55
2023/10/22 07:00:21;;;;;;;7.20;2.30;;;;;;;8.93;100.00;100846.59;109341;1252;65838;-55
2023/10/22 07:02:49;;;;;;;7.60;1.90;;;;;;;8.96;100.00;100845.46;109354;1252;71719;-55
2023/10/22 07:05:16;;;;;;;6.70;2.40;;;;;;;8.99;100.00;100841.67;109405;1252;60365;-58
2023/10/22 07:07:44;;;;;;;6.30;2.00;;;;;;;9.03;100.00;100841.23;109291;1253;59288;-55
2023/10/22 07:10:11;;;;;;;7.60;1.90;;;;;;;9.09;100.00;100845.15;109378;1252;74774;-55
2023/10/22 07:12:39;;;;;;;7.70;2.80;;;;;;;9.10;100.00;100849.29;109309;1252;65947;-55
2023/10/22 07:15:09;;;;;;;8.30;2.60;;;;;;;9.11;100.00;100852.98;109328;1252;71381;-55
2023/10/22 07:17:36;;;;;;;5.70;2.30;;;;;;;9.11;100.00;100848.98;109340;1252;59809;-55
2023/10/22 07:20:06;;;;;;;4.70;1.70;;;;;;;9.15;100.00;100848.55;109310;1253;59065;-55
2023/10/22 07:22:33;;;;;;;8.10;2.30;;;;;;;9.21;100.00;100850.27;109389;1252;74729;-55
2023/10/22 07:25:01;;;;;;;6.10;2.10;;;;;;;9.24;100.00;100849.84;109289;1253;66941;-55
2023/10/22 07:27:28;;;;;;;6.90;2.10;;;;;;;9.28;100.00;100848.05;109256;1253;72761;-58
2023/10/22 07:29:56;;;;;;;7.30;2.10;;;;;;;9.34;100.00;100846.71;109399;1251;59281;-55
2023/10/22 07:32:23;;;;;;;4.50;1.60;;;;;;;9.39;100.00;100840.52;109332;1253;58969;-55
2023/10/22 07:34:51;;;;;;;6.40;2.60;;;;;;;9.37;100.00;100840.49;109299;1253;74727;-55
2023/10/22 07:37:19;;;;;;;8.20;2.20;;;;;;;9.37;100.00;100837.02;109265;1253;66898;-56
2023/10/22 07:39:46;;;;;;;7.80;2.60;;;;;;;9.39;100.00;100835.09;109281;1253;72703;-55
2023/10/22 07:42:14;;;;;;;5.80;2.40;;;;;;;9.41;100.00;100830.23;109218;1253;59477;-55
2023/10/22 07:44:43;;;;;;;9.00;2.50;;;;;;;9.41;100.00;100837.48;109470;1250;58952;-55
2023/10/22 07:47:11;;;;;;;9.10;2.60;;;;;;;9.40;100.00;100835.71;109418;1253;74732;-56
2023/10/22 07:49:39;;;;;;;9.10;2.50;;;;;;;9.47;100.00;100836.67;109370;1252;67252;-56
2023/10/22 07:52:07;;;;;;;8.20;2.80;;;;;;;9.56;100.00;100831.25;109400;1252;72734;-55
2023/10/22 07:54:34;;;;;;;6.80;2.00;;;;;;;9.67;100.00;100829.48;109407;1252;59446;-55
2023/10/22 07:57:02;;;;;;;6.70;2.20;;;;;;;9.74;100.00;100828.64;109352;1252;60043;-55
2023/10/22 07:59:30;;;;;;;8.30;2.00;;;;;;;9.74;100.00;100823.08;109293;1252;73443;-55
2023/10/22 08:01:57;;;;;;;7.10;2.20;;;;;;;9.78;100.00;100826.52;109361;1252;66902;-57
2023/10/22 08:04:25;;;;;;;12.10;2.80;;;;;;;9.80;100.00;100819.69;109481;1251;71471;-53
2023/10/22 08:06:52;;;;;;;9.20;3.00;;;;;;;9.84;100.00;100823.59;109505;1251;58950;-56
2023/10/22 08:09:20;;;;;;;6.80;2.30;;;;;;;9.87;100.00;100823.98;109470;1251;58863;-54
2023/10/22 08:11:48;;;;;;;6.90;2.00;;;;;;;9.89;100.00;100820.98;109480;1251;73425;-55
2023/10/22 08:14:15;;;;;;;6.20;1.90;;;;;;;9.94;100.00;100819.83;109557;1250;67197;-54
2023/10/22 08:16:43;;;;;;;5.20;2.10;;;;;;;10.02;100.00;100818.56;109487;1250;72679;-53
2023/10/22 08:19:11;;;;;;;4.80;1.80;;;;;;;10.10;100.00;100814.17;109469;1251;58913;-56
2023/10/22 08:21:38;;;;;;;8.90;2.30;;;;;;;10.16;100.00;100815.10;109473;1251;58894;-56
2023/10/22 08:24:06;;;;;;;7.90;2.50;;;;;;;10.17;100.00;100810.89;109501;1253;74709;-54
2023/10/22 08:26:34;;;;;;;5.40;1.80;;;;;;;10.19;100.00;100808.63;109425;1252;65673;-54
2023/10/22 08:29:02;;;;;;;6.00;2.30;;;;;;;10.18;100.00;100801.41;109452;1252;72814;-54
2023/10/22 08:31:29;;;;;;;7.00;2.30;;;;;;;10.21;100.00;100800.60;109242;1253;61534;-55
2023/10/22 08:33:57;;;;;;;7.00;2.50;;;;;;;10.27;100.00;100803.87;109330;1252;60921;-54
2023/10/22 08:36:25;;;;;;;8.40;2.30;;;;;;;10.35;100.00;100795.45;109299;1252;74762;-54
2023/10/22 08:38:53;;;;;;;10.70;2.80;;;;;;;10.44;100.00;100794.63;109283;1252;67447;-53
2023/10/22 08:41:22;;;;;;;7.20;2.20;;;;;;;10.51;100.00;100789.43;109340;1253;72728;-57
2023/10/22 08:43:49;;;;;;;11.10;3.40;;;;;;;10.55;100.00;100786.70;109220;1253;61647;-55
2023/10/22 08:46:17;;;;;;;6.90;2.50;;;;;;;10.58;100.00;100786.04;109314;1253;58938;-54
2023/10/22 08:48:46;;;;;;;9.90;2.60;;;;;;;10.61;100.00;100780.52;109224;1253;73441;-55
2023/10/22 08:51:13;;;;;;;9.90;3.20;;;;;;;10.67;100.00;100781.50;109335;1252;65806;-57
2023/10/22 08:53:41;;;;;;;7.40;2.80;;;;;;;10.73;100.00;100775.98;109296;1252;71260;-55
2023/10/22 08:56:09;;;;;;;6.70;2.50;;;;;;;10.81;100.00;100771.67;109361;1252;61732;-55
2023/10/22 08:58:36;;;;;;;11.90;3.30;;;;;;;10.86;100.00;100778.36;109304;1253;60116;-55
2023/10/22 09:01:04;;;;;;;9.10;3.00;;;;;;;10.86;100.00;100771.91;109318;1252;74774;-55
2023/10/22 09:03:32;;;;;;;9.60;3.40;;;;;;;10.86;100.00;100776.27;109339;1252;67236;-57
2023/10/22 09:06:01;;;;;;;9.50;4.30;;;;;;;10.87;100.00;100776.11;109296;1253;73179;-54
2023/10/22 09:08:42;;;;;;;11.70;5.00;;;;;;;10.90;100.00;100782.90;109294;1252;61995;-55
2023/10/22 09:11:12;;;;;;;11.90;4.40;;;;;;;10.92;100.00;100774.76;109352;1252;60345;-55
2023/10/22 09:13:40;;;;;;;14.40;6.30;;;;;;;10.95;100.00;100768.95;109311;1253;73476;-55
2023/10/22 09:16:11;;;;;;;13.20;5.70;;;;;;;11.01;100.00;100766.92;109305;1252;66945;-55
2023/10/22 09:18:44;;;;;;;17.80;7.50;;;;;;;11.07;100.00;100759.45;109437;1252;72709;-55
2023/10/22 09:21:12;;;;;;;11.20;4.00;;;;;;;11.14;100.00;100758.66;109409;1252;58989;-57
2023/10/22 09:23:40;;;;;;;9.60;3.70;;;;;;;11.20;100.00;100752.57;109420;1252;58985;-54
2023/10/22 09:26:10;;;;;;;11.90;4.30;;;;;;;11.26;100.00;100747.45;109336;1253;74699;-54
2023/10/22 09:28:38;;;;;;;10.70;3.40;;;;;;;11.31;100.00;100742.31;109423;1253;64956;-55
2023/10/22 09:31:05;;;;;;;9.40;4.10;;;;;;;11.35;100.00;100735.55;109416;1252;72788;-55
2023/10/22 09:33:41;;;;;;;12.40;5.20;;;;;;;11.41;100.00;100740.30;109365;1252;59449;-55
2023/10/22 09:36:12;;;;;;;11.90;5.70;;;;;;;11.51;100.00;100736.57;109471;1252;59020;-54
2023/10/22 09:38:50;;;;;;;9.70;4.60;;;;;;;11.60;100.00;100731.68;109340;1252;74983;-54
2023/10/22 09:41:27;;;;;;;12.60;5.50;;;;;;;11.72;100.00;100733.56;109451;1251;66918;-55
2023/10/22 09:44:00;;;;;;;17.40;9.20;;;;;;;11.85;100.00;100732.89;109474;1251;71337;-55
2023/10/22 09:46:29;;;;;;;;;;;;;;;11.93;100.00;100730.63;109468;1251;59489;-55
2023/10/22 09:49:00;;;;;;;9.80;5.70;;;;;;;12.00;100.00;100727.70;109405;1251;58923;-54
2023/10/22 09:51:33;;;;;;;12.20;6.70;;;;;;;12.05;100.00;100729.66;109379;1251;73348;-56
2023/10/22 09:54:05;;;;;;;14.80;7.50;;;;;;;12.10;100.00;100729.17;109510;1251;67060;-54
2023/10/22 09:56:52;;;;;;;13.80;7.40;;;;;;;12.10;100.00;100739.70;109354;1253;71459;-55
2023/10/22 09:59:23;;;;;;;16.20;8.90;;;;;;;12.11;100.00;100740.84;109422;1252;60111;-56
2023/10/22 10:01:51;;;;;;;14.40;8.00;;;;;;;12.20;100.00;100739.27;109441;1253;60093;-54
2023/10/22 10:04:20;;;;;;;13.30;6.80;;;;;;;12.32;100.00;100735.80;109254;1252;74742;-55
2023/10/22 10:06:49;;;;;;;11.00;5.30;;;;;;;12.37;100.00;100734.73;109435;1252;66927;-55
2023/10/22 10:09:17;;;;;;;13.60;6.40;;;;;;;12.43;100.00;100729.70;109215;1252;72766;-55
2023/10/22 10:11:45;;;;;;;13.20;5.80;;;;;;;12.49;100.00;100724.13;109326;1251;60207;-55
2023/10/22 10:14:13;;;;;;;12.80;6.80;;;;;;;12.53;100.00;100724.54;109511;1251;59336;-57
2023/10/22 10:16:42;;;;;;;12.70;6.60;;;;;;;12.63;100.00;100716.84;109506;1251;73547;-55
2023/10/22 10:19:20;;;;;;;14.20;7.60;;;;;;;12.82;100.00;100719.66;109510;1251;67075;-55
2023/10/22 10:21:49;;;;;;;14.60;7.30;;;;;;;13.00;100.00;100714.55;109543;1251;71419;-55
2023/10/22 10:24:19;;;;;;;14.80;6.70;;;;;;;13.04;100.00;100711.77;109319;1251;59546;-55
2023/10/22 10:26:49;;;;;;;17.50;9.10;;;;;;;13.04;100.00;100723.94;109422;1256;58890;-54
2023/10/22 10:29:28;;;;;;;13.90;6.30;;;;;;;13.00;100.00;100723.33;109480;1251;74746;-54
2023/10/22 10:32:19;;;;;;;14.20;6.90;;;;;;;13.00;100.00;100718.73;109433;1251;67154;-55
2023/10/22 10:34:47;;;;;;;11.70;6.40;;;;;;;13.10;100.00;100708.48;109493;1254;72772;-56
2023/10/22 10:37:15;;;;;;;12.80;5.80;;;;;;;13.18;100.00;100706.29;109479;1251;60164;-54
2023/10/22 10:39:51;;;;;;;13.40;6.70;;;;;;;13.20;100.00;100705.27;109466;1251;59222;-57
2023/10/22 10:42:31;;;;;;;14.30;6.80;;;;;;;13.17;100.00;100702.66;109492;1251;73112;-55
2023/10/22 10:44:59;;;;;;;26.10;15.00;;;;;;;13.18;100.00;100699.91;109522;1251;66844;-55
2023/10/22 10:47:33;;;;;;;17.20;9.70;;;;;;;13.17;100.00;100700.48;109222;1253;72777;-57
2023/10/22 10:50:04;;;;;;;13.50;6.30;;;;;;;13.19;100.00;100699.61;109291;1254;59016;-55
2023/10/22 10:52:34;;;;;;;14.20;7.40;;;;;;;13.18;100.00;100700.23;109432;1253;60380;-55
2023/10/22 10:55:14;;;;;;;12.40;5.80;;;;;;;13.24;100.00;100701.98;109311;1253;74751;-55
2023/10/22 10:57:47;;;;;;;13.10;6.90;;;;;;;13.28;100.00;100701.85;109279;1253;67077;-55
2023/10/22 11:00:29;;;;;;;16.10;7.30;;;;;;;13.29;100.00;100699.11;109318;1253;70681;-55
2023/10/22 11:03:02;;;;;;;12.00;6.10;;;;;;;13.29;100.00;100700.58;109142;1252;59504;-56
2023/10/22 11:05:33;;;;;;;14.40;8.90;;;;;;;13.24;100.00;100697.98;109480;1252;59429;-55
2023/10/22 11:08:00;;;;;;;14.90;7.30;;;;;;;13.20;100.00;100703.85;109413;1253;74765;-55
2023/10/22 11:10:29;;;;;;;13.00;7.10;;;;;;;13.19;100.00;100702.25;109135;1252;67037;-55
2023/10/22 11:13:06;;;;;;;12.00;6.60;;;;;;;13.18;100.00;100700.85;109393;1253;72705;-56
2023/10/22 11:15:36;;;;;;;13.60;7.70;;;;;;;13.22;100.00;100697.95;109403;1253;60046;-55
2023/10/22 11:18:05;;;;;;;17.90;7.60;;;;;;;13.28;100.00;100697.14;109298;1253;58940;-55
2023/10/22 11:20:33;;;;;;;18.40;8.00;;;;;;;13.31;100.00;100701.80;109434;1253;74777;-55